sensor_id;sensor_type;location;lat;lon;timestamp;temperature;humidity
55064;DHT22;40963;52.168;21.296;2023-07-02T00:00:59;18.00;99.90
55064;DHT22;40963;52.168;21.296;2023-07-02T00:03:24;18.10;99.90
55064;DHT22;40963;52.168;21.296;2023-07-02T00:05:50;18.00;99.90
55064;DHT22;40963;52.168;21.296;2023-07-02T00:08:20;18.00;99.90
55064;DHT22;40963;52.168;21.296;2023-07-02T00:10:45;18.00;99.90
55064;DHT22;40963;52.168;21.296;2023-07-02T00:13:11;18.00;99.90
55064;DHT22;40963;52.168;21.296;2023-07-02T00:15:37;17.90;99.90
55064;DHT22;40963;52.168;21.296;2023-07-02T00:18:02;17.90;99.90
55064;DHT22;40963;52.168;21.296;2023-07-02T00:20:28;17.90;99.90
55064;DHT22;40963;52.168;21.296;2023-07-02T00:22:55;17.90;99.90
55064;DHT22;40963;52.168;21.296;2023-07-02T00:25:22;17.80;99.90
55064;DHT22;40963;52.168;21.296;2023-07-02T00:27:47;17.80;99.90
55064;DHT22;40963;52.168;21.296;2023-07-02T00:30:13;17.80;99.90
55064;DHT22;40963;52.168;21.296;2023-07-02T00:32:39;17.80;99.90
55064;DHT22;40963;52.168;21.296;2023-07-02T00:35:05;17.70;99.90
55064;DHT22;40963;52.168;21.296;2023-07-02T00:37:30;17.70;99.90
55064;DHT22;40963;52.168;21.296;2023-07-02T00:39:56;17.70;99.90
55064;DHT22;40963;52.168;21.296;2023-07-02T00:42:22;17.70;99.90
55064;DHT22;40963;52.168;21.296;2023-07-02T00:44:49;17.60;99.90
55064;DHT22;40963;52.168;21.296;2023-07-02T00:47:14;17.70;99.90
55064;DHT22;40963;52.168;21.296;2023-07-02T00:49:41;17.60;99.90
55064;DHT22;40963;52.168;21.296;2023-07-02T00:52:07;17.60;99.90
55064;DHT22;40963;52.168;21.296;2023-07-02T00:54:33;17.60;99.90
55064;DHT22;40963;52.168;21.296;2023-07-02T00:56:58;17.60;99.90
55064;DHT22;40963;52.168;21.296;2023-07-02T00:59:28;17.50;99.90
55064;DHT22;40963;52.168;21.296;2023-07-02T01:01:55;17.50;99.90
55064;DHT22;40963;52.168;21.296;2023-07-02T01:04:22;17.50;99.90
55064;DHT22;40963;52.168;21.296;2023-07-02T01:06:53;17.40;99.90
55064;DHT22;40963;52.168;21.296;2023-07-02T01:09:23;17.40;99.90
55064;DHT22;40963;52.168;21.296;2023-07-02T01:11:55;17.40;99.90
55064;DHT22;40963;52.168;21.296;2023-07-02T01:14:26;17.40;99.90
55064;DHT22;40963;52.168;21.296;2023-07-02T01:16:54;17.40;99.90
55064;DHT22;40963;52.168;21.296;2023-07-02T01:19:42;17.40;99.90
55064;DHT22;40963;52.168;21.296;2023-07-02T01:22:10;17.30;99.90
55064;DHT22;40963;52.168;21.296;2023-07-02T01:24:36;17.30;99.90
55064;DHT22;40963;52.168;21.296;2023-07-02T01:27:04;17.30;99.90
55064;DHT22;40963;52.168;21.296;2023-07-02T01:29:30;17.30;99.90
55064;DHT22;40963;52.168;21.296;2023-07-02T01:31:56;17.30;99.90
55064;DHT22;40963;52.168;21.296;2023-07-02T01:34:22;17.30;99.90
55064;DHT22;40963;52.168;21.296;2023-07-02T01:36:48;17.30;99.90
55064;DHT22;40963;52.168;21.296;2023-07-02T01:39:14;17.30;99.90
55064;DHT22;40963;52.168;21.296;2023-07-02T01:41:49;17.30;99.90
55064;DHT22;40963;52.168;21.296;2023-07-02T01:44:15;17.20;99.90
55064;DHT22;40963;52.168;21.296;2023-07-02T01:46:40;17.20;99.90
55064;DHT22;40963;52.168;21.296;2023-07-02T01:49:06;17.20;99.90
55064;DHT22;40963;52.168;21.296;2023-07-02T01:51:33;17.20;99.90
55064;DHT22;40963;52.168;21.296;2023-07-02T01:53:58;17.20;99.90
55064;DHT22;40963;52.168;21.296;2023-07-02T01:56:24;17.20;99.90
55064;DHT22;40963;52.168;21.296;2023-07-02T01:58:50;17.10;99.90
55064;DHT22;40963;52.168;21.296;2023-07-02T02:01:15;17.10;99.90
55064;DHT22;40963;52.168;21.296;2023-07-02T02:03:41;17.10;99.90
55064;DHT22;40963;52.168;21.296;2023-07-02T02:06:07;17.10;99.90
55064;DHT22;40963;52.168;21.296;2023-07-02T02:08:33;17.00;99.90
55064;DHT22;40963;52.168;21.296;2023-07-02T02:10:58;17.00;99.90
55064;DHT22;40963;52.168;21.296;2023-07-02T02:13:26;17.00;99.90
55064;DHT22;40963;52.168;21.296;2023-07-02T02:15:52;16.90;99.90
55064;DHT22;40963;52.168;21.296;2023-07-02T02:18:17;16.90;99.90
55064;DHT22;40963;52.168;21.296;2023-07-02T02:20:43;16.90;99.90
55064;DHT22;40963;52.168;21.296;2023-07-02T02:23:08;16.90;99.90
55064;DHT22;40963;52.168;21.296;2023-07-02T02:25:34;16.90;99.90
55064;DHT22;40963;52.168;21.296;2023-07-02T02:28:00;16.90;99.90
55064;DHT22;40963;52.168;21.296;2023-07-02T02:30:25;16.90;99.90
55064;DHT22;40963;52.168;21.296;2023-07-02T02:32:51;16.90;99.90
55064;DHT22;40963;52.168;21.296;2023-07-02T02:35:17;16.90;99.90
55064;DHT22;40963;52.168;21.296;2023-07-02T02:37:42;16.90;99.90
55064;DHT22;40963;52.168;21.296;2023-07-02T02:40:08;16.90;99.90
55064;DHT22;40963;52.168;21.296;2023-07-02T02:42:36;16.90;99.90
55064;DHT22;40963;52.168;21.296;2023-07-02T02:45:02;17.00;99.90
55064;DHT22;40963;52.168;21.296;2023-07-02T02:47:28;17.00;99.90
55064;DHT22;40963;52.168;21.296;2023-07-02T02:49:54;17.00;99.90
55064;DHT22;40963;52.168;21.296;2023-07-02T02:52:19;17.00;99.90
55064;DHT22;40963;52.168;21.296;2023-07-02T02:54:45;17.00;99.90
55064;DHT22;40963;52.168;21.296;2023-07-02T02:57:11;17.00;99.90
55064;DHT22;40963;52.168;21.296;2023-07-02T02:59:37;17.10;99.90
55064;DHT22;40963;52.168;21.296;2023-07-02T03:02:03;17.10;99.90
55064;DHT22;40963;52.168;21.296;2023-07-02T03:04:29;17.10;99.90
55064;DHT22;40963;52.168;21.296;2023-07-02T03:06:54;17.10;99.90
55064;DHT22;40963;52.168;21.296;2023-07-02T03:09:21;17.10;99.90
55064;DHT22;40963;52.168;21.296;2023-07-02T03:11:47;17.10;99.90
55064;DHT22;40963;52.168;21.296;2023-07-02T03:14:13;17.20;99.90
55064;DHT22;40963;52.168;21.296;2023-07-02T03:16:41;17.20;99.90
55064;DHT22;40963;52.168;21.296;2023-07-02T03:19:06;17.20;99.90
55064;DHT22;40963;52.168;21.296;2023-07-02T03:21:32;17.20;99.90
55064;DHT22;40963;52.168;21.296;2023-07-02T03:23:58;17.30;99.90
55064;DHT22;40963;52.168;21.296;2023-07-02T03:26:23;17.30;99.90
55064;DHT22;40963;52.168;21.296;2023-07-02T03:28:49;17.30;99.90
55064;DHT22;40963;52.168;21.296;2023-07-02T03:31:15;17.30;99.90
55064;DHT22;40963;52.168;21.296;2023-07-02T03:33:40;17.40;99.90
55064;DHT22;40963;52.168;21.296;2023-07-02T03:36:06;17.40;99.90
55064;DHT22;40963;52.168;21.296;2023-07-02T03:38:32;17.40;99.90
55064;DHT22;40963;52.168;21.296;2023-07-02T03:40:57;17.40;99.90
55064;DHT22;40963;52.168;21.296;2023-07-02T03:43:23;17.50;99.90
55064;DHT22;40963;52.168;21.296;2023-07-02T03:45:51;17.50;99.90
55064;DHT22;40963;52.168;21.296;2023-07-02T03:48:17;17.50;99.90
55064;DHT22;40963;52.168;21.296;2023-07-02T03:50:43;17.50;99.90
55064;DHT22;40963;52.168;21.296;2023-07-02T03:53:08;17.50;99.90
55064;DHT22;40963;52.168;21.296;2023-07-02T03:55:34;17.60;99.90
55064;DHT22;40963;52.168;21.296;2023-07-02T03:58:00;17.60;99.90
55064;DHT22;40963;52.168;21.296;2023-07-02T04:00:26;17.70;99.90
55064;DHT22;40963;52.168;21.296;2023-07-02T04:02:51;17.60;99.90
55064;DHT22;40963;52.168;21.296;2023-07-02T04:05:17;17.70;99.90
55064;DHT22;40963;52.168;21.296;2023-07-02T04:07:42;17.70;99.90
55064;DHT22;40963;52.168;21.296;2023-07-02T04:10:08;17.70;99.90
55064;DHT22;40963;52.168;21.296;2023-07-02T04:12:34;17.80;99.90
55064;DHT22;40963;52.168;21.296;2023-07-02T04:14:59;17.80;99.90
55064;DHT22;40963;52.168;21.296;2023-07-02T04:17:25;17.80;99.90
55064;DHT22;40963;52.168;21.296;2023-07-02T04:19:54;17.80;99.90
55064;DHT22;40963;52.168;21.296;2023-07-02T04:22:20;17.80;99.90
55064;DHT22;40963;52.168;21.296;2023-07-02T04:24:46;17.90;99.90
55064;DHT22;40963;52.168;21.296;2023-07-02T04:27:14;17.90;99.90
55064;DHT22;40963;52.168;21.296;2023-07-02T04:29:43;17.90;99.90
55064;DHT22;40963;52.168;21.296;2023-07-02T04:32:08;17.90;99.90
55064;DHT22;40963;52.168;21.296;2023-07-02T04:34:34;17.90;99.90
55064;DHT22;40963;52.168;21.296;2023-07-02T04:37:04;17.90;99.90
55064;DHT22;40963;52.168;21.296;2023-07-02T04:39:30;18.00;99.90
55064;DHT22;40963;52.168;21.296;2023-07-02T04:41:56;18.00;99.90
55064;DHT22;40963;52.168;21.296;2023-07-02T04:44:22;18.00;99.90
55064;DHT22;40963;52.168;21.296;2023-07-02T04:46:58;18.00;99.90
55064;DHT22;40963;52.168;21.296;2023-07-02T04:49:24;18.00;99.90
55064;DHT22;40963;52.168;21.296;2023-07-02T04:51:50;18.00;99.90
55064;DHT22;40963;52.168;21.296;2023-07-02T04:54:16;18.10;99.90
55064;DHT22;40963;52.168;21.296;2023-07-02T04:56:42;18.10;99.90
55064;DHT22;40963;52.168;21.296;2023-07-02T04:59:07;18.10;99.90
55064;DHT22;40963;52.168;21.296;2023-07-02T05:01:33;18.20;99.90
55064;DHT22;40963;52.168;21.296;2023-07-02T05:03:58;18.20;99.90
55064;DHT22;40963;52.168;21.296;2023-07-02T05:06:24;18.20;99.90
55064;DHT22;40963;52.168;21.296;2023-07-02T05:08:50;18.20;99.90
55064;DHT22;40963;52.168;21.296;2023-07-02T05:11:15;18.30;99.90
55064;DHT22;40963;52.168;21.296;2023-07-02T05:13:41;18.40;99.90
55064;DHT22;40963;52.168;21.296;2023-07-02T05:16:06;18.40;99.90
55064;DHT22;40963;52.168;21.296;2023-07-02T05:18:32;18.40;99.90
55064;DHT22;40963;52.168;21.296;2023-07-02T05:20:58;18.40;99.90
55064;DHT22;40963;52.168;21.296;2023-07-02T05:23:23;18.50;99.90
55064;DHT22;40963;52.168;21.296;2023-07-02T05:25:49;18.50;99.90
55064;DHT22;40963;52.168;21.296;2023-07-02T05:28:14;18.50;99.90
55064;DHT22;40963;52.168;21.296;2023-07-02T05:30:40;18.50;99.90
55064;DHT22;40963;52.168;21.296;2023-07-02T05:33:06;18.60;99.90
55064;DHT22;40963;52.168;21.296;2023-07-02T05:35:31;18.60;99.90
55064;DHT22;40963;52.168;21.296;2023-07-02T05:37:57;18.60;99.90
55064;DHT22;40963;52.168;21.296;2023-07-02T05:40:22;18.70;99.90
55064;DHT22;40963;52.168;21.296;2023-07-02T05:42:48;18.70;99.90
55064;DHT22;40963;52.168;21.296;2023-07-02T05:45:14;18.70;99.90
55064;DHT22;40963;52.168;21.296;2023-07-02T05:47:39;18.70;99.90
55064;DHT22;40963;52.168;21.296;2023-07-02T05:50:07;18.80;99.90
55064;DHT22;40963;52.168;21.296;2023-07-02T05:52:33;18.80;99.90
55064;DHT22;40963;52.168;21.296;2023-07-02T05:54:58;18.80;99.90
55064;DHT22;40963;52.168;21.296;2023-07-02T05:57:24;18.80;99.90
55064;DHT22;40963;52.168;21.296;2023-07-02T05:59:50;18.90;99.90
55064;DHT22;40963;52.168;21.296;2023-07-02T06:02:15;18.90;99.90
55064;DHT22;40963;52.168;21.296;2023-07-02T06:04:41;19.00;99.90
55064;DHT22;40963;52.168;21.296;2023-07-02T06:07:06;19.00;99.90
55064;DHT22;40963;52.168;21.296;2023-07-02T06:09:32;19.00;99.90
55064;DHT22;40963;52.168;21.296;2023-07-02T06:11:58;19.00;99.90
55064;DHT22;40963;52.168;21.296;2023-07-02T06:14:24;19.10;99.90
55064;DHT22;40963;52.168;21.296;2023-07-02T06:16:51;19.20;99.90
55064;DHT22;40963;52.168;21.296;2023-07-02T06:19:17;19.20;99.90
55064;DHT22;40963;52.168;21.296;2023-07-02T06:21:43;19.30;99.90
55064;DHT22;40963;52.168;21.296;2023-07-02T06:24:09;19.40;99.90
55064;DHT22;40963;52.168;21.296;2023-07-02T06:26:34;19.40;99.90
55064;DHT22;40963;52.168;21.296;2023-07-02T06:29:00;19.40;99.90
55064;DHT22;40963;52.168;21.296;2023-07-02T06:31:26;19.50;99.90
55064;DHT22;40963;52.168;21.296;2023-07-02T06:33:52;19.50;99.90
55064;DHT22;40963;52.168;21.296;2023-07-02T06:36:18;19.60;99.90
55064;DHT22;40963;52.168;21.296;2023-07-02T06:38:44;19.60;99.90
55064;DHT22;40963;52.168;21.296;2023-07-02T06:41:09;19.70;99.90
55064;DHT22;40963;52.168;21.296;2023-07-02T06:43:35;19.70;99.90
55064;DHT22;40963;52.168;21.296;2023-07-02T06:46:01;19.70;99.90
55064;DHT22;40963;52.168;21.296;2023-07-02T06:48:26;19.80;99.90
55064;DHT22;40963;52.168;21.296;2023-07-02T06:50:52;19.80;99.90
55064;DHT22;40963;52.168;21.296;2023-07-02T06:53:18;19.90;99.90
55064;DHT22;40963;52.168;21.296;2023-07-02T06:55:43;20.00;99.90
55064;DHT22;40963;52.168;21.296;2023-07-02T06:58:09;20.00;99.90
55064;DHT22;40963;52.168;21.296;2023-07-02T07:00:35;20.10;99.90
55064;DHT22;40963;52.168;21.296;2023-07-02T07:03:04;20.20;99.90
55064;DHT22;40963;52.168;21.296;2023-07-02T07:05:30;20.30;99.90
55064;DHT22;40963;52.168;21.296;2023-07-02T07:07:56;20.30;99.90
55064;DHT22;40963;52.168;21.296;2023-07-02T07:10:22;20.40;99.90
55064;DHT22;40963;52.168;21.296;2023-07-02T07:12:48;20.40;99.90
55064;DHT22;40963;52.168;21.296;2023-07-02T07:15:13;20.40;99.90
55064;DHT22;40963;52.168;21.296;2023-07-02T07:17:39;20.40;99.90
55064;DHT22;40963;52.168;21.296;2023-07-02T07:20:05;20.50;99.90
55064;DHT22;40963;52.168;21.296;2023-07-02T07:22:31;20.60;99.90
55064;DHT22;40963;52.168;21.296;2023-07-02T07:24:56;20.60;99.90
55064;DHT22;40963;52.168;21.296;2023-07-02T07:27:22;20.60;99.90
55064;DHT22;40963;52.168;21.296;2023-07-02T07:29:48;20.70;99.90
55064;DHT22;40963;52.168;21.296;2023-07-02T07:32:13;20.80;99.90
55064;DHT22;40963;52.168;21.296;2023-07-02T07:34:39;20.80;99.90
55064;DHT22;40963;52.168;21.296;2023-07-02T07:37:05;20.80;99.90
55064;DHT22;40963;52.168;21.296;2023-07-02T07:39:30;20.80;99.90
55064;DHT22;40963;52.168;21.296;2023-07-02T07:41:56;20.80;99.90
55064;DHT22;40963;52.168;21.296;2023-07-02T07:44:22;20.70;99.90
55064;DHT22;40963;52.168;21.296;2023-07-02T07:46:47;20.70;99.90
55064;DHT22;40963;52.168;21.296;2023-07-02T07:49:13;20.80;99.90
55064;DHT22;40963;52.168;21.296;2023-07-02T07:51:39;20.90;99.90
55064;DHT22;40963;52.168;21.296;2023-07-02T07:54:05;20.90;99.90
55064;DHT22;40963;52.168;21.296;2023-07-02T07:56:30;21.00;99.90
55064;DHT22;40963;52.168;21.296;2023-07-02T07:58:56;21.00;99.90
55064;DHT22;40963;52.168;21.296;2023-07-02T08:01:21;21.00;99.90
55064;DHT22;40963;52.168;21.296;2023-07-02T08:03:47;21.00;99.90
55064;DHT22;40963;52.168;21.296;2023-07-02T08:06:13;21.10;99.90
55064;DHT22;40963;52.168;21.296;2023-07-02T08:08:38;21.10;99.90
55064;DHT22;40963;52.168;21.296;2023-07-02T08:11:04;21.10;99.90
55064;DHT22;40963;52.168;21.296;2023-07-02T08:13:29;21.20;99.90
55064;DHT22;40963;52.168;21.296;2023-07-02T08:15:55;21.20;99.90
55064;DHT22;40963;52.168;21.296;2023-07-02T08:18:21;21.10;99.90
55064;DHT22;40963;52.168;21.296;2023-07-02T08:20:46;21.00;99.90
55064;DHT22;40963;52.168;21.296;2023-07-02T08:23:12;21.00;99.90
55064;DHT22;40963;52.168;21.296;2023-07-02T08:25:38;20.90;99.90
55064;DHT22;40963;52.168;21.296;2023-07-02T08:28:03;20.90;99.90
55064;DHT22;40963;52.168;21.296;2023-07-02T08:30:29;20.80;99.90
55064;DHT22;40963;52.168;21.296;2023-07-02T08:32:55;20.70;99.90
55064;DHT22;40963;52.168;21.296;2023-07-02T08:35:21;20.60;99.90
55064;DHT22;40963;52.168;21.296;2023-07-02T08:37:47;20.60;99.90
55064;DHT22;40963;52.168;21.296;2023-07-02T08:40:18;20.60;99.90
55064;DHT22;40963;52.168;21.296;2023-07-02T08:42:45;20.60;99.90
55064;DHT22;40963;52.168;21.296;2023-07-02T08:45:16;20.60;99.90
55064;DHT22;40963;52.168;21.296;2023-07-02T08:47:43;20.60;99.90
55064;DHT22;40963;52.168;21.296;2023-07-02T08:50:09;20.60;99.90
55064;DHT22;40963;52.168;21.296;2023-07-02T08:52:35;20.70;99.90
55064;DHT22;40963;52.168;21.296;2023-07-02T08:55:01;20.70;99.90
55064;DHT22;40963;52.168;21.296;2023-07-02T08:57:26;20.70;99.90
55064;DHT22;40963;52.168;21.296;2023-07-02T08:59:52;20.80;99.90
55064;DHT22;40963;52.168;21.296;2023-07-02T09:02:17;20.80;99.90
55064;DHT22;40963;52.168;21.296;2023-07-02T09:04:43;20.80;99.90
55064;DHT22;40963;52.168;21.296;2023-07-02T09:09:48;20.80;99.90
55064;DHT22;40963;52.168;21.296;2023-07-02T09:12:29;20.80;99.90
55064;DHT22;40963;52.168;21.296;2023-07-02T09:15:00;20.70;99.90
55064;DHT22;40963;52.168;21.296;2023-07-02T09:17:52;20.70;99.90
55064;DHT22;40963;52.168;21.296;2023-07-02T09:20:17;20.70;99.90
55064;DHT22;40963;52.168;21.296;2023-07-02T09:22:53;20.70;99.90
55064;DHT22;40963;52.168;21.296;2023-07-02T09:25:19;20.80;99.90
55064;DHT22;40963;52.168;21.296;2023-07-02T09:27:45;20.70;99.90
55064;DHT22;40963;52.168;21.296;2023-07-02T09:30:12;20.70;99.90
55064;DHT22;40963;52.168;21.296;2023-07-02T09:32:39;20.80;99.90
55064;DHT22;40963;52.168;21.296;2023-07-02T09:35:05;20.80;99.90
55064;DHT22;40963;52.168;21.296;2023-07-02T09:37:31;20.80;99.90
55064;DHT22;40963;52.168;21.296;2023-07-02T09:39:57;20.70;99.90
55064;DHT22;40963;52.168;21.296;2023-07-02T09:42:25;20.70;99.90
55064;DHT22;40963;52.168;21.296;2023-07-02T09:44:55;20.60;99.90
55064;DHT22;40963;52.168;21.296;2023-07-02T09:47:23;20.70;99.90
55064;DHT22;40963;52.168;21.296;2023-07-02T09:49:54;20.60;99.90
55064;DHT22;40963;52.168;21.296;2023-07-02T09:52:21;20.60;99.90
55064;DHT22;40963;52.168;21.296;2023-07-02T09:54:47;20.60;99.90
55064;DHT22;40963;52.168;21.296;2023-07-02T09:57:13;20.50;99.90
55064;DHT22;40963;52.168;21.296;2023-07-02T09:59:40;20.50;99.90
55064;DHT22;40963;52.168;21.296;2023-07-02T10:02:07;20.50;99.90
55064;DHT22;40963;52.168;21.296;2023-07-02T10:04:43;20.50;99.90
55064;DHT22;40963;52.168;21.296;2023-07-02T10:07:10;20.60;99.90
55064;DHT22;40963;52.168;21.296;2023-07-02T10:09:43;20.60;99.90
55064;DHT22;40963;52.168;21.296;2023-07-02T10:12:28;20.60;99.90
55064;DHT22;40963;52.168;21.296;2023-07-02T10:14:57;20.60;99.90
55064;DHT22;40963;52.168;21.296;2023-07-02T10:17:33;20.60;99.90
55064;DHT22;40963;52.168;21.296;2023-07-02T10:20:04;20.70;99.90
55064;DHT22;40963;52.168;21.296;2023-07-02T10:22:49;20.80;99.90
55064;DHT22;40963;52.168;21.296;2023-07-02T10:25:25;20.90;99.90
55064;DHT22;40963;52.168;21.296;2023-07-02T10:27:51;21.10;99.90
55064;DHT22;40963;52.168;21.296;2023-07-02T10:30:17;21.30;99.90
55064;DHT22;40963;52.168;21.296;2023-07-02T10:32:42;21.40;99.90
55064;DHT22;40963;52.168;21.296;2023-07-02T10:35:18;21.60;99.90
55064;DHT22;40963;52.168;21.296;2023-07-02T10:37:44;21.80;99.90
55064;DHT22;40963;52.168;21.296;2023-07-02T10:40:10;21.90;99.90
55064;DHT22;40963;52.168;21.296;2023-07-02T10:45:11;22.10;99.90
55064;DHT22;40963;52.168;21.296;2023-07-02T10:47:39;22.00;99.90
55064;DHT22;40963;52.168;21.296;2023-07-02T10:50:20;22.00;99.90
55064;DHT22;40963;52.168;21.296;2023-07-02T10:52:46;22.00;99.90
55064;DHT22;40963;52.168;21.296;2023-07-02T10:57:44;22.00;99.90
55064;DHT22;40963;52.168;21.296;2023-07-02T11:00:10;22.00;99.90
55064;DHT22;40963;52.168;21.296;2023-07-02T11:02:37;22.20;99.90
55064;DHT22;40963;52.168;21.296;2023-07-02T11:05:06;22.40;99.90
55064;DHT22;40963;52.168;21.296;2023-07-02T11:07:40;22.50;99.90
55064;DHT22;40963;52.168;21.296;2023-07-02T11:10:07;22.50;99.90
55064;DHT22;40963;52.168;21.296;2023-07-02T11:12:34;22.60;99.90
55064;DHT22;40963;52.168;21.296;2023-07-02T11:15:16;22.60;99.90
55064;DHT22;40963;52.168;21.296;2023-07-02T11:17:43;22.50;99.90
55064;DHT22;40963;52.168;21.296;2023-07-02T11:20:09;22.50;99.90
55064;DHT22;40963;52.168;21.296;2023-07-02T11:22:36;22.50;99.90
55064;DHT22;40963;52.168;21.296;2023-07-02T11:25:18;22.40;99.90
55064;DHT22;40963;52.168;21.296;2023-07-02T11:27:45;22.30;99.90
55064;DHT22;40963;52.168;21.296;2023-07-02T11:30:12;22.30;99.90
55064;DHT22;40963;52.168;21.296;2023-07-02T11:32:54;22.20;99.90
55064;DHT22;40963;52.168;21.296;2023-07-02T11:35:21;22.10;99.90
55064;DHT22;40963;52.168;21.296;2023-07-02T11:37:47;22.00;99.90
55064;DHT22;40963;52.168;21.296;2023-07-02T11:40:14;21.90;99.90
55064;DHT22;40963;52.168;21.296;2023-07-02T11:42:42;21.90;99.90
55064;DHT22;40963;52.168;21.296;2023-07-02T11:45:09;21.80;99.90
55064;DHT22;40963;52.168;21.296;2023-07-02T11:47:35;21.80;99.90
55064;DHT22;40963;52.168;21.296;2023-07-02T11:50:01;21.70;99.90
55064;DHT22;40963;52.168;21.296;2023-07-02T11:52:27;21.70;99.90
55064;DHT22;40963;52.168;21.296;2023-07-02T11:54:52;21.70;99.90
55064;DHT22;40963;52.168;21.296;2023-07-02T11:57:18;21.60;99.90
55064;DHT22;40963;52.168;21.296;2023-07-02T11:59:43;21.50;99.90
55064;DHT22;40963;52.168;21.296;2023-07-02T12:02:09;21.40;99.90
55064;DHT22;40963;52.168;21.296;2023-07-02T12:04:35;21.30;99.90
55064;DHT22;40963;52.168;21.296;2023-07-02T12:07:01;21.10;99.90
55064;DHT22;40963;52.168;21.296;2023-07-02T12:09:29;21.10;99.90
55064;DHT22;40963;52.168;21.296;2023-07-02T12:11:54;21.00;99.90
55064;DHT22;40963;52.168;21.296;2023-07-02T12:14:20;21.00;99.90
55064;DHT22;40963;52.168;21.296;2023-07-02T12:16:46;21.00;99.90
55064;DHT22;40963;52.168;21.296;2023-07-02T12:19:11;21.10;99.90
55064;DHT22;40963;52.168;21.296;2023-07-02T12:21:37;21.20;99.90
55064;DHT22;40963;52.168;21.296;2023-07-02T12:24:03;21.30;99.90
55064;DHT22;40963;52.168;21.296;2023-07-02T12:26:33;21.50;99.90
55064;DHT22;40963;52.168;21.296;2023-07-02T12:28:59;21.70;99.90
55064;DHT22;40963;52.168;21.296;2023-07-02T12:31:25;21.90;99.90
55064;DHT22;40963;52.168;21.296;2023-07-02T12:33:50;22.00;99.90
55064;DHT22;40963;52.168;21.296;2023-07-02T12:36:16;22.20;99.90
55064;DHT22;40963;52.168;21.296;2023-07-02T12:38:42;22.30;99.90
55064;DHT22;40963;52.168;21.296;2023-07-02T12:41:07;22.50;99.90
55064;DHT22;40963;52.168;21.296;2023-07-02T12:43:33;22.60;99.90
55064;DHT22;40963;52.168;21.296;2023-07-02T12:45:59;22.80;99.90
55064;DHT22;40963;52.168;21.296;2023-07-02T12:48:24;22.90;99.80
55064;DHT22;40963;52.168;21.296;2023-07-02T12:50:58;23.10;98.90
55064;DHT22;40963;52.168;21.296;2023-07-02T12:53:27;23.20;97.40
55064;DHT22;40963;52.168;21.296;2023-07-02T12:55:54;23.30;96.40
55064;DHT22;40963;52.168;21.296;2023-07-02T12:58:20;23.40;95.90
55064;DHT22;40963;52.168;21.296;2023-07-02T13:00:47;23.30;95.10
55064;DHT22;40963;52.168;21.296;2023-07-02T13:03:13;23.40;94.70
55064;DHT22;40963;52.168;21.296;2023-07-02T13:05:39;23.40;93.20
55064;DHT22;40963;52.168;21.296;2023-07-02T13:08:05;23.60;93.00
55064;DHT22;40963;52.168;21.296;2023-07-02T13:10:32;23.70;92.80
55064;DHT22;40963;52.168;21.296;2023-07-02T13:12:58;23.80;89.50
55064;DHT22;40963;52.168;21.296;2023-07-02T13:15:24;23.70;83.00
55064;DHT22;40963;52.168;21.296;2023-07-02T13:17:50;23.60;80.00
55064;DHT22;40963;52.168;21.296;2023-07-02T13:20:16;23.60;80.30
55064;DHT22;40963;52.168;21.296;2023-07-02T13:22:42;23.60;79.70
55064;DHT22;40963;52.168;21.296;2023-07-02T13:25:07;23.50;78.00
55064;DHT22;40963;52.168;21.296;2023-07-02T13:27:33;23.40;75.20
55064;DHT22;40963;52.168;21.296;2023-07-02T13:29:59;23.40;74.20
55064;DHT22;40963;52.168;21.296;2023-07-02T13:32:24;23.40;73.40
55064;DHT22;40963;52.168;21.296;2023-07-02T13:34:50;23.40;72.30
55064;DHT22;40963;52.168;21.296;2023-07-02T13:37:16;23.40;71.40
55064;DHT22;40963;52.168;21.296;2023-07-02T13:39:48;23.40;71.70
55064;DHT22;40963;52.168;21.296;2023-07-02T13:42:15;23.50;71.70
55064;DHT22;40963;52.168;21.296;2023-07-02T13:44:41;23.60;70.00
55064;DHT22;40963;52.168;21.296;2023-07-02T13:47:06;23.60;68.90
55064;DHT22;40963;52.168;21.296;2023-07-02T13:49:32;23.60;68.10
55064;DHT22;40963;52.168;21.296;2023-07-02T13:51:58;23.60;67.80
55064;DHT22;40963;52.168;21.296;2023-07-02T13:54:24;23.60;66.90
55064;DHT22;40963;52.168;21.296;2023-07-02T13:56:49;23.60;64.60
55064;DHT22;40963;52.168;21.296;2023-07-02T13:59:16;23.60;64.10
55064;DHT22;40963;52.168;21.296;2023-07-02T14:01:42;23.50;63.80
55064;DHT22;40963;52.168;21.296;2023-07-02T14:04:09;23.50;63.40
55064;DHT22;40963;52.168;21.296;2023-07-02T14:06:35;23.40;62.90
55064;DHT22;40963;52.168;21.296;2023-07-02T14:09:00;23.40;62.80
55064;DHT22;40963;52.168;21.296;2023-07-02T14:11:26;23.30;62.80
55064;DHT22;40963;52.168;21.296;2023-07-02T14:13:53;23.30;62.50
55064;DHT22;40963;52.168;21.296;2023-07-02T14:16:19;23.20;62.90
55064;DHT22;40963;52.168;21.296;2023-07-02T14:18:45;23.20;63.40
55064;DHT22;40963;52.168;21.296;2023-07-02T14:21:11;23.20;63.40
55064;DHT22;40963;52.168;21.296;2023-07-02T14:23:36;23.20;63.80
55064;DHT22;40963;52.168;21.296;2023-07-02T14:26:02;23.10;63.50
55064;DHT22;40963;52.168;21.296;2023-07-02T14:28:28;23.10;62.50
55064;DHT22;40963;52.168;21.296;2023-07-02T14:31:04;23.00;61.60
55064;DHT22;40963;52.168;21.296;2023-07-02T14:33:32;22.90;61.30
55064;DHT22;40963;52.168;21.296;2023-07-02T14:35:58;22.90;61.40
55064;DHT22;40963;52.168;21.296;2023-07-02T14:38:24;22.90;61.70
55064;DHT22;40963;52.168;21.296;2023-07-02T14:40:50;23.00;63.00
55064;DHT22;40963;52.168;21.296;2023-07-02T14:43:17;23.10;64.20
55064;DHT22;40963;52.168;21.296;2023-07-02T14:45:48;23.10;63.70
55064;DHT22;40963;52.168;21.296;2023-07-02T14:48:14;23.10;62.40
55064;DHT22;40963;52.168;21.296;2023-07-02T14:50:53;23.00;61.60
55064;DHT22;40963;52.168;21.296;2023-07-02T14:53:20;22.90;61.30
55064;DHT22;40963;52.168;21.296;2023-07-02T14:55:46;22.90;61.00
55064;DHT22;40963;52.168;21.296;2023-07-02T14:58:14;23.00;61.10
55064;DHT22;40963;52.168;21.296;2023-07-02T15:00:52;23.00;61.20
55064;DHT22;40963;52.168;21.296;2023-07-02T15:03:18;23.00;60.40
55064;DHT22;40963;52.168;21.296;2023-07-02T15:05:46;22.90;60.40
55064;DHT22;40963;52.168;21.296;2023-07-02T15:08:12;23.00;60.50
55064;DHT22;40963;52.168;21.296;2023-07-02T15:10:39;23.00;60.30
55064;DHT22;40963;52.168;21.296;2023-07-02T15:13:06;23.00;59.80
55064;DHT22;40963;52.168;21.296;2023-07-02T15:15:31;23.00;60.00
55064;DHT22;40963;52.168;21.296;2023-07-02T15:17:57;23.00;59.40
55064;DHT22;40963;52.168;21.296;2023-07-02T15:20:23;22.90;59.30